sensor_id;sensor_type;location;lat;lon;timestamp;pressure;altitude;pressure_sealevel;temperature;humidity
44663;BME280;30381;52.754;18.258;2023-02-10T00:01:56;102121.95;;;-3.33;100.00
44663;BME280;30381;52.754;18.258;2023-02-10T00:04:23;102121.70;;;-3.36;100.00
44663;BME280;30381;52.754;18.258;2023-02-10T00:06:53;102122.47;;;-3.40;100.00
44663;BME280;30381;52.754;18.258;2023-02-10T00:09:19;102125.41;;;-3.44;100.00
44663;BME280;30381;52.754;18.258;2023-02-10T00:11:45;102122.11;;;-3.47;100.00
44663;BME280;30381;52.754;18.258;2023-02-10T00:14:27;102119.95;;;-3.52;100.00
44663;BME280;30381;52.754;18.258;2023-02-10T00:16:57;102121.38;;;-3.54;100.00
44663;BME280;30381;52.754;18.258;2023-02-10T00:19:26;102125.84;;;-3.55;100.00
44663;BME280;30381;52.754;18.258;2023-02-10T00:22:02;102121.02;;;-3.57;100.00
44663;BME280;30381;52.754;18.258;2023-02-10T00:24:31;102116.30;;;-3.57;100.00
44663;BME280;30381;52.754;18.258;2023-02-10T00:26:59;102101.27;;;-3.57;100.00
44663;BME280;30381;52.754;18.258;2023-02-10T00:29:29;102095.98;;;-3.54;100.00
44663;BME280;30381;52.754;18.258;2023-02-10T00:31:58;102094.49;;;-3.51;100.00
44663;BME280;30381;52.754;18.258;2023-02-10T00:34:24;102093.23;;;-3.48;100.00
44663;BME280;30381;52.754;18.258;2023-02-10T00:36:50;102087.50;;;-3.44;100.00
44663;BME280;30381;52.754;18.258;2023-02-10T00:39:17;102090.52;;;-3.39;100.00
44663;BME280;30381;52.754;18.258;2023-02-10T00:42:03;102100.61;;;-3.35;100.00
44663;BME280;30381;52.754;18.258;2023-02-10T00:44:50;102113.59;;;-3.32;100.00
44663;BME280;30381;52.754;18.258;2023-02-10T00:47:17;102120.35;;;-3.30;100.00
44663;BME280;30381;52.754;18.258;2023-02-10T00:49:43;102107.80;;;-3.30;100.00
44663;BME280;30381;52.754;18.258;2023-02-10T00:52:09;102101.92;;;-3.29;100.00
44663;BME280;30381;52.754;18.258;2023-02-10T00:54:36;102099.90;;;-3.30;100.00
44663;BME280;30381;52.754;18.258;2023-02-10T00:57:03;102105.90;;;-3.30;100.00
44663;BME280;30381;52.754;18.258;2023-02-10T00:59:29;102100.83;;;-3.31;100.00
44663;BME280;30381;52.754;18.258;2023-02-10T01:01:56;102103.11;;;-3.31;100.00
44663;BME280;30381;52.754;18.258;2023-02-10T01:04:27;102103.81;;;-3.31;100.00
44663;BME280;30381;52.754;18.258;2023-02-10T01:06:57;102095.56;;;-3.31;100.00
44663;BME280;30381;52.754;18.258;2023-02-10T01:09:25;102093.62;;;-3.31;100.00
44663;BME280;30381;52.754;18.258;2023-02-10T01:11:51;102085.73;;;-3.32;100.00
44663;BME280;30381;52.754;18.258;2023-02-10T01:14:25;102095.04;;;-3.31;100.00
44663;BME280;30381;52.754;18.258;2023-02-10T01:16:54;102099.37;;;-3.33;100.00
44663;BME280;30381;52.754;18.258;2023-02-10T01:19:20;102097.87;;;-3.34;100.00
44663;BME280;30381;52.754;18.258;2023-02-10T01:21:46;102101.75;;;-3.34;100.00
44663;BME280;30381;52.754;18.258;2023-02-10T01:24:13;102096.23;;;-3.33;100.00
44663;BME280;30381;52.754;18.258;2023-02-10T01:26:39;102090.88;;;-3.32;100.00
44663;BME280;30381;52.754;18.258;2023-02-10T01:29:06;102092.41;;;-3.31;100.00
44663;BME280;30381;52.754;18.258;2023-02-10T01:31:32;102090.05;;;-3.33;100.00
44663;BME280;30381;52.754;18.258;2023-02-10T01:33:58;102094.69;;;-3.34;100.00
44663;BME280;30381;52.754;18.258;2023-02-10T01:36:25;102089.13;;;-3.35;100.00
44663;BME280;30381;52.754;18.258;2023-02-10T01:38:52;102084.05;;;-3.35;100.00
44663;BME280;30381;52.754;18.258;2023-02-10T01:41:20;102078.97;;;-3.36;100.00
44663;BME280;30381;52.754;18.258;2023-02-10T01:46:22;102074.71;;;-3.38;100.00
44663;BME280;30381;52.754;18.258;2023-02-10T01:48:48;102075.46;;;-3.38;100.00
44663;BME280;30381;52.754;18.258;2023-02-10T01:51:17;102072.73;;;-3.39;100.00
44663;BME280;30381;52.754;18.258;2023-02-10T01:53:50;102075.79;;;-3.40;100.00
44663;BME280;30381;52.754;18.258;2023-02-10T01:56:37;102078.23;;;-3.40;100.00
44663;BME280;30381;52.754;18.258;2023-02-10T01:59:03;102079.17;;;-3.41;100.00
44663;BME280;30381;52.754;18.258;2023-02-10T02:01:30;102078.17;;;-3.42;100.00
44663;BME280;30381;52.754;18.258;2023-02-10T02:03:57;102080.70;;;-3.40;100.00
44663;BME280;30381;52.754;18.258;2023-02-10T02:06:44;102076.95;;;-3.35;100.00
44663;BME280;30381;52.754;18.258;2023-02-10T02:09:12;102067.06;;;-3.27;100.00
44663;BME280;30381;52.754;18.258;2023-02-10T02:11:56;102067.97;;;-3.21;100.00
44663;BME280;30381;52.754;18.258;2023-02-10T02:17:19;102063.74;;;-3.04;100.00
44663;BME280;30381;52.754;18.258;2023-02-10T02:23:34;102071.95;;;-2.84;100.00
44663;BME280;30381;52.754;18.258;2023-02-10T02:34:07;102069.77;;;-2.53;100.00
44663;BME280;30381;52.754;18.258;2023-02-10T02:36:52;102088.73;;;-2.47;100.00
44663;BME280;30381;52.754;18.258;2023-02-10T02:39:22;102091.88;;;-2.42;100.00
44663;BME280;30381;52.754;18.258;2023-02-10T02:44:46;102084.38;;;-2.29;100.00
44663;BME280;30381;52.754;18.258;2023-02-10T02:47:19;102083.01;;;-2.23;100.00
44663;BME280;30381;52.754;18.258;2023-02-10T02:52:51;102080.86;;;-2.13;100.00
44663;BME280;30381;52.754;18.258;2023-02-10T02:58:04;102083.05;;;-2.05;100.00
44663;BME280;30381;52.754;18.258;2023-02-10T03:00:36;102087.00;;;-2.01;100.00
44663;BME280;30381;52.754;18.258;2023-02-10T03:03:05;102087.70;;;-1.99;100.00
44663;BME280;30381;52.754;18.258;2023-02-10T03:05:34;102088.83;;;-1.95;100.00
44663;BME280;30381;52.754;18.258;2023-02-10T03:08:00;102090.43;;;-1.91;100.00
44663;BME280;30381;52.754;18.258;2023-02-10T03:10:28;102094.30;;;-1.86;100.00
44663;BME280;30381;52.754;18.258;2023-02-10T03:12:54;102094.14;;;-1.82;100.00
44663;BME280;30381;52.754;18.258;2023-02-10T03:15:20;102092.60;;;-1.79;100.00
44663;BME280;30381;52.754;18.258;2023-02-10T03:17:47;102092.81;;;-1.75;100.00
44663;BME280;30381;52.754;18.258;2023-02-10T03:20:15;102096.63;;;-1.71;100.00
44663;BME280;30381;52.754;18.258;2023-02-10T03:22:44;102101.03;;;-1.69;100.00
44663;BME280;30381;52.754;18.258;2023-02-10T03:25:18;102109.63;;;-1.65;100.00
44663;BME280;30381;52.754;18.258;2023-02-10T03:27:44;102114.37;;;-1.63;100.00
44663;BME280;30381;52.754;18.258;2023-02-10T03:30:10;102112.96;;;-1.61;100.00
44663;BME280;30381;52.754;18.258;2023-02-10T03:32:36;102103.25;;;-1.59;100.00
44663;BME280;30381;52.754;18.258;2023-02-10T03:35:03;102107.44;;;-1.56;100.00
44663;BME280;30381;52.754;18.258;2023-02-10T03:37:38;102107.91;;;-1.53;100.00
44663;BME280;30381;52.754;18.258;2023-02-10T03:40:04;102104.30;;;-1.50;100.00
44663;BME280;30381;52.754;18.258;2023-02-10T03:42:30;102097.15;;;-1.47;100.00
44663;BME280;30381;52.754;18.258;2023-02-10T03:44:56;102095.10;;;-1.46;100.00
44663;BME280;30381;52.754;18.258;2023-02-10T03:47:23;102095.56;;;-1.45;100.00
44663;BME280;30381;52.754;18.258;2023-02-10T03:49:49;102102.31;;;-1.45;100.00
44663;BME280;30381;52.754;18.258;2023-02-10T03:52:15;102096.38;;;-1.46;100.00
44663;BME280;30381;52.754;18.258;2023-02-10T03:54:42;102088.54;;;-1.48;100.00
44663;BME280;30381;52.754;18.258;2023-02-10T03:57:10;102097.34;;;-1.47;100.00
44663;BME280;30381;52.754;18.258;2023-02-10T03:59:37;102101.52;;;-1.48;100.00
44663;BME280;30381;52.754;18.258;2023-02-10T04:02:03;102100.00;;;-1.52;100.00
44663;BME280;30381;52.754;18.258;2023-02-10T04:04:49;102095.99;;;-1.54;100.00
44663;BME280;30381;52.754;18.258;2023-02-10T04:07:15;102095.59;;;-1.58;100.00
44663;BME280;30381;52.754;18.258;2023-02-10T04:09:41;102099.73;;;-1.61;100.00
44663;BME280;30381;52.754;18.258;2023-02-10T04:12:08;102105.28;;;-1.62;100.00
44663;BME280;30381;52.754;18.258;2023-02-10T04:14:34;102101.76;;;-1.64;100.00
44663;BME280;30381;52.754;18.258;2023-02-10T04:17:00;102103.14;;;-1.68;100.00
44663;BME280;30381;52.754;18.258;2023-02-10T04:19:26;102101.44;;;-1.71;100.00
44663;BME280;30381;52.754;18.258;2023-02-10T04:21:53;102102.53;;;-1.74;100.00
44663;BME280;30381;52.754;18.258;2023-02-10T04:24:19;102108.73;;;-1.77;100.00
44663;BME280;30381;52.754;18.258;2023-02-10T04:26:45;102109.85;;;-1.80;100.00
44663;BME280;30381;52.754;18.258;2023-02-10T04:29:12;102115.70;;;-1.82;100.00
44663;BME280;30381;52.754;18.258;2023-02-10T04:31:38;102113.41;;;-1.87;100.00
44663;BME280;30381;52.754;18.258;2023-02-10T04:34:04;102108.41;;;-1.90;100.00
44663;BME280;30381;52.754;18.258;2023-02-10T04:36:35;102114.14;;;-1.94;100.00
44663;BME280;30381;52.754;18.258;2023-02-10T04:39:21;102102.95;;;-2.00;100.00
44663;BME280;30381;52.754;18.258;2023-02-10T04:41:47;102099.33;;;-2.08;100.00
44663;BME280;30381;52.754;18.258;2023-02-10T04:44:13;102094.42;;;-2.15;100.00
44663;BME280;30381;52.754;18.258;2023-02-10T04:46:39;102091.94;;;-2.22;100.00
44663;BME280;30381;52.754;18.258;2023-02-10T04:49:05;102083.01;;;-2.27;100.00
44663;BME280;30381;52.754;18.258;2023-02-10T04:51:32;102080.13;;;-2.34;100.00
44663;BME280;30381;52.754;18.258;2023-02-10T04:53:58;102083.80;;;-2.38;100.00
44663;BME280;30381;52.754;18.258;2023-02-10T04:56:24;102086.24;;;-2.42;100.00
44663;BME280;30381;52.754;18.258;2023-02-10T04:58:50;102089.20;;;-2.46;100.00
44663;BME280;30381;52.754;18.258;2023-02-10T05:01:17;102094.98;;;-2.50;100.00
44663;BME280;30381;52.754;18.258;2023-02-10T05:03:44;102094.20;;;-2.54;100.00
44663;BME280;30381;52.754;18.258;2023-02-10T05:06:13;102102.37;;;-2.56;100.00
44663;BME280;30381;52.754;18.258;2023-02-10T05:08:40;102098.41;;;-2.57;100.00
44663;BME280;30381;52.754;18.258;2023-02-10T05:11:14;102095.94;;;-2.58;100.00
44663;BME280;30381;52.754;18.258;2023-02-10T05:13:41;102092.60;;;-2.58;100.00
44663;BME280;30381;52.754;18.258;2023-02-10T05:16:09;102091.55;;;-2.58;100.00
44663;BME280;30381;52.754;18.258;2023-02-10T05:18:36;102086.87;;;-2.57;100.00
44663;BME280;30381;52.754;18.258;2023-02-10T05:21:05;102088.71;;;-2.55;100.00
44663;BME280;30381;52.754;18.258;2023-02-10T05:23:33;102087.20;;;-2.54;100.00
44663;BME280;30381;52.754;18.258;2023-02-10T05:26:16;102086.83;;;-2.54;100.00
44663;BME280;30381;52.754;18.258;2023-02-10T05:28:44;102087.59;;;-2.55;100.00
44663;BME280;30381;52.754;18.258;2023-02-10T05:31:10;102091.67;;;-2.55;100.00
44663;BME280;30381;52.754;18.258;2023-02-10T05:33:37;102098.34;;;-2.55;100.00
44663;BME280;30381;52.754;18.258;2023-02-10T05:36:05;102092.91;;;-2.55;100.00
44663;BME280;30381;52.754;18.258;2023-02-10T05:38:31;102094.81;;;-2.54;100.00
44663;BME280;30381;52.754;18.258;2023-02-10T05:40:57;102094.09;;;-2.54;100.00
44663;BME280;30381;52.754;18.258;2023-02-10T05:43:23;102095.52;;;-2.52;100.00
44663;BME280;30381;52.754;18.258;2023-02-10T05:45:49;102100.34;;;-2.51;100.00
44663;BME280;30381;52.754;18.258;2023-02-10T05:48:15;102104.48;;;-2.47;100.00
44663;BME280;30381;52.754;18.258;2023-02-10T05:50:41;102104.70;;;-2.43;100.00
44663;BME280;30381;52.754;18.258;2023-02-10T05:53:08;102105.92;;;-2.38;100.00
44663;BME280;30381;52.754;18.258;2023-02-10T05:55:35;102104.77;;;-2.35;100.00
44663;BME280;30381;52.754;18.258;2023-02-10T05:58:02;102115.16;;;-2.30;100.00
44663;BME280;30381;52.754;18.258;2023-02-10T06:00:28;102124.77;;;-2.26;100.00
44663;BME280;30381;52.754;18.258;2023-02-10T06:02:54;102122.60;;;-2.21;100.00
44663;BME280;30381;52.754;18.258;2023-02-10T06:05:20;102121.89;;;-2.14;100.00
44663;BME280;30381;52.754;18.258;2023-02-10T06:07:46;102119.59;;;-2.07;100.00
44663;BME280;30381;52.754;18.258;2023-02-10T06:10:13;102129.20;;;-2.01;100.00
44663;BME280;30381;52.754;18.258;2023-02-10T06:12:39;102139.89;;;-1.95;100.00
44663;BME280;30381;52.754;18.258;2023-02-10T06:15:06;102139.96;;;-1.89;100.00
44663;BME280;30381;52.754;18.258;2023-02-10T06:17:32;102141.19;;;-1.82;100.00
44663;BME280;30381;52.754;18.258;2023-02-10T06:20:01;102146.22;;;-1.77;100.00
44663;BME280;30381;52.754;18.258;2023-02-10T06:22:30;102150.77;;;-1.71;100.00
44663;BME280;30381;52.754;18.258;2023-02-10T06:25:06;102150.36;;;-1.66;100.00
44663;BME280;30381;52.754;18.258;2023-02-10T06:30:47;102156.89;;;-1.53;100.00
44663;BME280;30381;52.754;18.258;2023-02-10T06:33:15;102151.34;;;-1.48;100.00
44663;BME280;30381;52.754;18.258;2023-02-10T06:35:52;102155.02;;;-1.40;100.00
44663;BME280;30381;52.754;18.258;2023-02-10T06:38:25;102157.80;;;-1.33;100.00
44663;BME280;30381;52.754;18.258;2023-02-10T06:40:52;102153.00;;;-1.26;100.00
44663;BME280;30381;52.754;18.258;2023-02-10T06:43:19;102156.38;;;-1.20;100.00
44663;BME280;30381;52.754;18.258;2023-02-10T06:45:47;102166.73;;;-1.12;100.00
44663;BME280;30381;52.754;18.258;2023-02-10T06:48:14;102167.98;;;-1.04;100.00
44663;BME280;30381;52.754;18.258;2023-02-10T06:50:40;102168.79;;;-0.96;100.00
44663;BME280;30381;52.754;18.258;2023-02-10T06:53:06;102169.91;;;-0.91;100.00
44663;BME280;30381;52.754;18.258;2023-02-10T06:55:33;102170.48;;;-0.84;100.00
44663;BME280;30381;52.754;18.258;2023-02-10T06:58:02;102163.29;;;-0.79;100.00
44663;BME280;30381;52.754;18.258;2023-02-10T07:00:31;102165.34;;;-0.73;100.00
44663;BME280;30381;52.754;18.258;2023-02-10T07:02:59;102161.78;;;-0.69;100.00
44663;BME280;30381;52.754;18.258;2023-02-10T07:05:27;102168.32;;;-0.65;100.00
44663;BME280;30381;52.754;18.258;2023-02-10T07:07:53;102165.73;;;-0.61;100.00
44663;BME280;30381;52.754;18.258;2023-02-10T07:10:21;102170.38;;;-0.57;100.00
44663;BME280;30381;52.754;18.258;2023-02-10T07:12:47;102170.09;;;-0.54;100.00
44663;BME280;30381;52.754;18.258;2023-02-10T07:15:15;102172.45;;;-0.50;100.00
44663;BME280;30381;52.754;18.258;2023-02-10T07:17:42;102173.12;;;-0.46;100.00
44663;BME280;30381;52.754;18.258;2023-02-10T07:20:09;102174.30;;;-0.40;100.00
44663;BME280;30381;52.754;18.258;2023-02-10T07:22:35;102178.19;;;-0.36;100.00
44663;BME280;30381;52.754;18.258;2023-02-10T07:25:01;102178.20;;;-0.32;100.00
44663;BME280;30381;52.754;18.258;2023-02-10T07:27:28;102171.60;;;-0.27;100.00
44663;BME280;30381;52.754;18.258;2023-02-10T07:29:54;102174.05;;;-0.23;100.00
44663;BME280;30381;52.754;18.258;2023-02-10T07:32:20;102168.71;;;-0.18;100.00
44663;BME280;30381;52.754;18.258;2023-02-10T07:34:46;102179.63;;;-0.13;100.00
44663;BME280;30381;52.754;18.258;2023-02-10T07:37:19;102179.41;;;-0.09;100.00
44663;BME280;30381;52.754;18.258;2023-02-10T07:39:46;102177.25;;;-0.04;100.00
44663;BME280;30381;52.754;18.258;2023-02-10T07:42:12;102176.04;;;-0.01;100.00
44663;BME280;30381;52.754;18.258;2023-02-10T07:44:38;102178.45;;;0.03;100.00
44663;BME280;30381;52.754;18.258;2023-02-10T07:47:23;102185.45;;;0.04;100.00
44663;BME280;30381;52.754;18.258;2023-02-10T07:49:52;102192.72;;;0.06;100.00
44663;BME280;30381;52.754;18.258;2023-02-10T07:52:21;102196.40;;;0.08;100.00
44663;BME280;30381;52.754;18.258;2023-02-10T07:54:48;102188.27;;;0.12;100.00
44663;BME280;30381;52.754;18.258;2023-02-10T07:57:15;102187.23;;;0.16;100.00
44663;BME280;30381;52.754;18.258;2023-02-10T07:59:41;102186.84;;;0.21;100.00
44663;BME280;30381;52.754;18.258;2023-02-10T08:02:12;102184.62;;;0.28;100.00
44663;BME280;30381;52.754;18.258;2023-02-10T08:04:38;102185.09;;;0.34;100.00
44663;BME280;30381;52.754;18.258;2023-02-10T08:07:06;102197.92;;;0.40;100.00
44663;BME280;30381;52.754;18.258;2023-02-10T08:09:32;102199.64;;;0.45;100.00
44663;BME280;30381;52.754;18.258;2023-02-10T08:11:58;102198.63;;;0.49;100.00
44663;BME280;30381;52.754;18.258;2023-02-10T08:14:24;102190.88;;;0.54;100.00
44663;BME280;30381;52.754;18.258;2023-02-10T08:16:51;102186.98;;;0.62;100.00
44663;BME280;30381;52.754;18.258;2023-02-10T08:19:32;102193.52;;;0.70;100.00
44663;BME280;30381;52.754;18.258;2023-02-10T08:22:26;102202.98;;;0.79;100.00
44663;BME280;30381;52.754;18.258;2023-02-10T08:24:54;102201.97;;;0.87;100.00
44663;BME280;30381;52.754;18.258;2023-02-10T08:27:20;102189.35;;;0.95;100.00
44663;BME280;30381;52.754;18.258;2023-02-10T08:29:46;102181.18;;;1.03;100.00
44663;BME280;30381;52.754;18.258;2023-02-10T08:32:12;102186.09;;;1.12;100.00
44663;BME280;30381;52.754;18.258;2023-02-10T08:34:46;102197.05;;;1.22;100.00
44663;BME280;30381;52.754;18.258;2023-02-10T08:37:14;102200.13;;;1.29;100.00
44663;BME280;30381;52.754;18.258;2023-02-10T08:39:43;102201.53;;;1.36;100.00
44663;BME280;30381;52.754;18.258;2023-02-10T08:42:10;102201.91;;;1.41;100.00
44663;BME280;30381;52.754;18.258;2023-02-10T08:44:36;102212.58;;;1.45;100.00
44663;BME280;30381;52.754;18.258;2023-02-10T08:47:03;102214.73;;;1.49;100.00
44663;BME280;30381;52.754;18.258;2023-02-10T08:49:34;102218.89;;;1.54;100.00
44663;BME280;30381;52.754;18.258;2023-02-10T08:52:11;102213.34;;;1.58;100.00
44663;BME280;30381;52.754;18.258;2023-02-10T08:54:38;102217.73;;;1.61;100.00
44663;BME280;30381;52.754;18.258;2023-02-10T08:57:07;102232.23;;;1.63;100.00
44663;BME280;30381;52.754;18.258;2023-02-10T08:59:52;102245.26;;;1.67;100.00
44663;BME280;30381;52.754;18.258;2023-02-10T09:02:21;102238.61;;;1.68;100.00
44663;BME280;30381;52.754;18.258;2023-02-10T09:04:50;102233.55;;;1.68;100.00
44663;BME280;30381;52.754;18.258;2023-02-10T09:07:20;102226.81;;;1.74;100.00
44663;BME280;30381;52.754;18.258;2023-02-10T09:09:50;102230.55;;;1.82;100.00
44663;BME280;30381;52.754;18.258;2023-02-10T09:12:17;102227.66;;;1.90;100.00
44663;BME280;30381;52.754;18.258;2023-02-10T09:14:47;102218.13;;;2.06;100.00
44663;BME280;30381;52.754;18.258;2023-02-10T09:17:25;102218.92;;;2.27;100.00
44663;BME280;30381;52.754;18.258;2023-02-10T09:19:52;102225.34;;;2.51;100.00
44663;BME280;30381;52.754;18.258;2023-02-10T09:22:27;102226.79;;;2.73;100.00
44663;BME280;30381;52.754;18.258;2023-02-10T09:25:00;102224.23;;;2.86;100.00
44663;BME280;30381;52.754;18.258;2023-02-10T09:27:27;102226.07;;;2.98;100.00
44663;BME280;30381;52.754;18.258;2023-02-10T09:29:53;102218.89;;;3.10;100.00
44663;BME280;30381;52.754;18.258;2023-02-10T09:32:22;102219.15;;;3.24;100.00
44663;BME280;30381;52.754;18.258;2023-02-10T09:34:50;102216.24;;;3.32;100.00
44663;BME280;30381;52.754;18.258;2023-02-10T09:37:19;102224.66;;;3.31;100.00
44663;BME280;30381;52.754;18.258;2023-02-10T09:39:48;102242.60;;;3.21;100.00
44663;BME280;30381;52.754;18.258;2023-02-10T09:42:44;102247.79;;;3.15;100.00
44663;BME280;30381;52.754;18.258;2023-02-10T09:45:25;102246.90;;;3.06;100.00
44663;BME280;30381;52.754;18.258;2023-02-10T09:48:25;102244.84;;;3.03;100.00
44663;BME280;30381;52.754;18.258;2023-02-10T09:51:20;102245.41;;;3.03;100.00
44663;BME280;30381;52.754;18.258;2023-02-10T09:53:52;102258.43;;;3.03;100.00
44663;BME280;30381;52.754;18.258;2023-02-10T09:56:21;102264.40;;;3.00;100.00
44663;BME280;30381;52.754;18.258;2023-02-10T09:58:54;102272.77;;;2.98;100.00
44663;BME280;30381;52.754;18.258;2023-02-10T10:04:08;102263.63;;;3.08;100.00
44663;BME280;30381;52.754;18.258;2023-02-10T10:06:41;102261.15;;;3.17;100.00
44663;BME280;30381;52.754;18.258;2023-02-10T10:13:02;102257.63;;;3.39;100.00
44663;BME280;30381;52.754;18.258;2023-02-10T10:15:39;102260.20;;;3.39;100.00
44663;BME280;30381;52.754;18.258;2023-02-10T10:18:15;102250.29;;;3.48;100.00
44663;BME280;30381;52.754;18.258;2023-02-10T10:21:14;102255.05;;;3.56;100.00
44663;BME280;30381;52.754;18.258;2023-02-10T10:32:13;102256.44;;;3.34;100.00
44663;BME280;30381;52.754;18.258;2023-02-10T10:34:49;102247.27;;;3.38;100.00
44663;BME280;30381;52.754;18.258;2023-02-10T10:37:20;102243.54;;;3.42;100.00
44663;BME280;30381;52.754;18.258;2023-02-10T10:39:55;102251.02;;;3.55;100.00
44663;BME280;30381;52.754;18.258;2023-02-10T10:42:35;102255.39;;;3.60;100.00
44663;BME280;30381;52.754;18.258;2023-02-10T10:45:11;102245.77;;;3.52;100.00
44663;BME280;30381;52.754;18.258;2023-02-10T10:47:53;102251.87;;;3.37;100.00
44663;BME280;30381;52.754;18.258;2023-02-10T10:50:22;102246.20;;;3.28;100.00
44663;BME280;30381;52.754;18.258;2023-02-10T10:52:52;102241.96;;;3.26;100.00
44663;BME280;30381;52.754;18.258;2023-02-10T10:55:28;102246.08;;;3.20;100.00
44663;BME280;30381;52.754;18.258;2023-02-10T10:57:59;102242.94;;;3.12;100.00
44663;BME280;30381;52.754;18.258;2023-02-10T11:00:33;102245.84;;;3.08;100.00
44663;BME280;30381;52.754;18.258;2023-02-10T11:03:03;102241.13;;;3.05;100.00
44663;BME280;30381;52.754;18.258;2023-02-10T11:05:36;102242.15;;;2.98;100.00
44663;BME280;30381;52.754;18.258;2023-02-10T11:08:07;102236.55;;;2.93;100.00
44663;BME280;30381;52.754;18.258;2023-02-10T11:10:53;102230.59;;;2.87;100.00
44663;BME280;30381;52.754;18.258;2023-02-10T11:13:31;102228.02;;;2.87;100.00
44663;BME280;30381;52.754;18.258;2023-02-10T11:16:11;102226.61;;;2.96;100.00
44663;BME280;30381;52.754;18.258;2023-02-10T11:18:53;102231.07;;;3.04;100.00
44663;BME280;30381;52.754;18.258;2023-02-10T11:21:20;102237.80;;;3.09;100.00
44663;BME280;30381;52.754;18.258;2023-02-10T11:23:49;102234.33;;;3.13;100.00
44663;BME280;30381;52.754;18.258;2023-02-10T11:26:24;102235.39;;;3.20;100.00
44663;BME280;30381;52.754;18.258;2023-02-10T11:28:55;102235.17;;;3.24;100.00
44663;BME280;30381;52.754;18.258;2023-02-10T11:34:12;102245.58;;;3.29;100.00
44663;BME280;30381;52.754;18.258;2023-02-10T11:36:42;102252.67;;;3.31;100.00
44663;BME280;30381;52.754;18.258;2023-02-10T11:39:23;102257.54;;;3.30;100.00
44663;BME280;30381;52.754;18.258;2023-02-10T11:42:39;102259.81;;;3.25;100.00
44663;BME280;30381;52.754;18.258;2023-02-10T11:47:38;102255.98;;;3.24;100.00
44663;BME280;30381;52.754;18.258;2023-02-10T11:50:22;102258.48;;;3.24;100.00
44663;BME280;30381;52.754;18.258;2023-02-10T11:52:52;102260.30;;;3.24;100.00
44663;BME280;30381;52.754;18.258;2023-02-10T11:55:20;102259.38;;;3.28;100.00
44663;BME280;30381;52.754;18.258;2023-02-10T11:57:58;102262.57;;;3.30;100.00
44663;BME280;30381;52.754;18.258;2023-02-10T12:01:13;102262.92;;;3.28;100.00
44663;BME280;30381;52.754;18.258;2023-02-10T12:16:15;102267.24;;;3.19;100.00
44663;BME280;30381;52.754;18.258;2023-02-10T12:19:03;102265.10;;;3.15;100.00
44663;BME280;30381;52.754;18.258;2023-02-10T12:30:33;102282.35;;;3.00;100.00
44663;BME280;30381;52.754;18.258;2023-02-10T12:36:43;102272.27;;;2.94;100.00
44663;BME280;30381;52.754;18.258;2023-02-10T12:39:21;102269.42;;;2.94;100.00
44663;BME280;30381;52.754;18.258;2023-02-10T12:45:13;102267.23;;;2.93;100.00
44663;BME280;30381;52.754;18.258;2023-02-10T12:54:02;102266.24;;;2.92;100.00
44663;BME280;30381;52.754;18.258;2023-02-10T12:56:45;102262.48;;;2.94;100.00
44663;BME280;30381;52.754;18.258;2023-02-10T12:59:33;102267.06;;;2.96;100.00
44663;BME280;30381;52.754;18.258;2023-02-10T13:05:15;102272.39;;;2.91;100.00
44663;BME280;30381;52.754;18.258;2023-02-10T13:07:55;102275.45;;;2.85;100.00
44663;BME280;30381;52.754;18.258;2023-02-10T13:10:45;102277.66;;;2.83;100.00
44663;BME280;30381;52.754;18.258;2023-02-10T13:13:19;102278.71;;;2.87;100.00
44663;BME280;30381;52.754;18.258;2023-02-10T13:16:20;102284.45;;;2.86;100.00
44663;BME280;30381;52.754;18.258;2023-02-10T13:21:49;102283.45;;;2.89;100.00
44663;BME280;30381;52.754;18.258;2023-02-10T13:24:30;102281.14;;;2.89;100.00
44663;BME280;30381;52.754;18.258;2023-02-10T13:27:25;102283.16;;;2.90;100.00
44663;BME280;30381;52.754;18.258;2023-02-10T13:33:17;102290.34;;;2.99;100.00
44663;BME280;30381;52.754;18.258;2023-02-10T13:35:47;102300.06;;;3.00;100.00
44663;BME280;30381;52.754;18.258;2023-02-10T13:38:17;102297.84;;;2.95;100.00
44663;BME280;30381;52.754;18.258;2023-02-10T13:44:38;102295.96;;;2.90;100.00
44663;BME280;30381;52.754;18.258;2023-02-10T13:52:35;102274.38;;;2.79;100.00
44663;BME280;30381;52.754;18.258;2023-02-10T13:57:37;102288.67;;;2.81;100.00
44663;BME280;30381;52.754;18.258;2023-02-10T14:00:19;102293.16;;;2.79;100.00
44663;BME280;30381;52.754;18.258;2023-02-10T14:03:19;102291.52;;;2.75;100.00
44663;BME280;30381;52.754;18.258;2023-02-10T14:06:05;102288.79;;;2.70;100.00
44663;BME280;30381;52.754;18.258;2023-02-10T14:08:43;102288.64;;;2.65;100.00
44663;BME280;30381;52.754;18.258;2023-02-10T14:12:01;102290.01;;;2.58;100.00
44663;BME280;30381;52.754;18.258;2023-02-10T14:14:37;102294.48;;;2.52;100.00
44663;BME280;30381;52.754;18.258;2023-02-10T14:17:23;102289.80;;;2.49;100.00
44663;BME280;30381;52.754;18.258;2023-02-10T14:19:57;102288.73;;;2.45;100.00
44663;BME280;30381;52.754;18.258;2023-02-10T14:22:30;102288.39;;;2.41;100.00
44663;BME280;30381;52.754;18.258;2023-02-10T14:25:24;102287.48;;;2.39;100.00
44663;BME280;30381;52.754;18.258;2023-02-10T14:27:56;102283.02;;;2.37;100.00
44663;BME280;30381;52.754;18.258;2023-02-10T14:30:31;102283.16;;;2.34;100.00
44663;BME280;30381;52.754;18.258;2023-02-10T14:33:05;102284.08;;;2.30;100.00
44663;BME280;30381;52.754;18.258;2023-02-10T14:35:55;102288.21;;;2.26;100.00
44663;BME280;30381;52.754;18.258;2023-02-10T14:38:28;102279.47;;;2.20;100.00
44663;BME280;30381;52.754;18.258;2023-02-10T14:40:57;102281.89;;;2.19;100.00
44663;BME280;30381;52.754;18.258;2023-02-10T14:43:27;102284.15;;;2.18;100.00